Time;durP1;ratioP1;P1;durP2;ratioP2;P2;SDS_P1;SDS_P2;PMS_P1;PMS_P2;Temp;Humidity;BMP_temperature;BMP_pressure;BME280_temperature;BME280_humidity;BME280_pressure;Samples;Min_cycle;Max_cycle;Signal;HPM_P1;HPM_P2
2023/08/11 00:00:50;;;;;;;;;;;;;;;;;;5053125;28;19920;-65
2023/08/11 00:03:16;;;;;;;;;;;;;;;;;;5052519;28;19925;-65
2023/08/11 00:05:42;;;;;;;;;;;;;;;;;;5053385;28;20408;-65
2023/08/11 00:08:08;;;;;;;;;;;;;;;;;;5052317;28;19968;-65
2023/08/11 00:10:34;;;;;;;;;;;;;;;;;;5054051;28;20293;-65
2023/08/11 00:13:00;;;;;;;;;;;;;;;;;;5052747;28;19921;-65
2023/08/11 00:15:28;;;;;;;;;;;;;;;;;;5050413;28;20435;-65
2023/08/11 00:17:54;;;;;;;;;;;;;;;;;;5043055;28;20302;-65
2023/08/11 00:20:20;;;;;;;;;;;;;;;;;;5051335;28;19927;-65
2023/08/11 00:22:45;;;;;;;;;;;;;;;;;;5050349;28;19960;-64
2023/08/11 00:25:11;;;;;;;;;;;;;;;;;;5038379;28;19925;-65
2023/08/11 00:27:37;;;;;;;;;;;;;;;;;;5033715;28;19925;-65
2023/08/11 00:30:05;;;;;;;;;;;;;;;;;;5046263;28;19928;-65
2023/08/11 00:32:31;;;;;;;;;;;;;;;;;;5035454;28;19925;-65
2023/08/11 00:34:57;;;;;;;;;;;;;;;;;;5040429;28;19974;-65
2023/08/11 00:37:23;;;;;;;;;;;;;;;;;;5037180;28;19929;-65
2023/08/11 00:39:51;;;;;;;;;;;;;;;;;;5049223;28;20072;-65
2023/08/11 00:42:17;;;;;;;;;;;;;;;;;;5033205;28;20016;-65
2023/08/11 00:44:43;;;;;;;;;;;;;;;;;;5032277;28;20012;-64
2023/08/11 00:47:09;;;;;;;;;;;;;;;;;;5050040;28;19924;-64
2023/08/11 00:49:35;;;;;;;;;;;;;;;;;;5050673;28;19978;-64
2023/08/11 00:52:00;;;;;;;;;;;;;;;;;;5052660;28;19925;-64
2023/08/11 00:54:26;;;;;;;;;;;;;;;;;;5052794;28;20367;-65
2023/08/11 00:56:52;;;;;;;;;;;;;;;;;;5051835;28;19940;-65
2023/08/11 00:59:19;;;;;;;;;;;;;;;;;;5034224;28;20378;-64
2023/08/11 01:01:45;;;;;;;;;;;;;;;;;;5052230;28;19982;-64
2023/08/11 01:04:12;;;;;;;;;;;;;;;;;;5035742;28;20477;-65
2023/08/11 01:06:38;;;;;;;;;;;;;;;;;;5048491;28;19962;-65
2023/08/11 01:09:03;;;;;;;;;;;;;;;;;;5050952;28;19921;-65
2023/08/11 01:11:29;;;;;;;;;;;;;;;;;;5049840;28;19925;-65
2023/08/11 01:13:56;;;;;;;;;;;;;;;;;;5043178;28;20464;-65
2023/08/11 01:16:22;;;;;;;;;;;;;;;;;;5051734;28;19975;-65
2023/08/11 01:18:47;;;;;;;;;;;;;;;;;;5039320;28;20010;-64
2023/08/11 01:21:13;;;;;;;;;;;;;;;;;;5050373;28;20069;-64
2023/08/11 01:23:40;;;;;;;;;;;;;;;;;;5052018;28;19921;-65
2023/08/11 01:26:06;;;;;;;;;;;;;;;;;;5051460;28;20363;-65
2023/08/11 01:28:32;;;;;;;;;;;;;;;;;;5049550;28;19932;-64
2023/08/11 01:30:58;;;;;;;;;;;;;;;;;;5051511;28;19920;-65
2023/08/11 01:33:24;;;;;;;;;;;;;;;;;;5049031;28;19921;-65
2023/08/11 01:35:50;;;;;;;;;;;;;;;;;;5038526;28;20397;-65
2023/08/11 01:38:15;;;;;;;;;;;;;;;;;;5052026;28;19924;-65
2023/08/11 01:40:41;;;;;;;;;;;;;;;;;;5032918;28;20321;-64
2023/08/11 01:43:07;;;;;;;;;;;;;;;;;;5045742;28;20381;-65
2023/08/11 01:45:33;;;;;;;;;;;;;;;;;;5048994;28;19921;-65
2023/08/11 01:47:59;;;;;;;;;;;;;;;;;;5042886;28;20395;-64
2023/08/11 01:50:25;;;;;;;;;;;;;;;;;;5048389;28;20002;-65
2023/08/11 01:52:51;;;;;;;;;;;;;;;;;;5050354;28;19955;-65
2023/08/11 01:55:18;;;;;;;;;;;;;;;;;;5036335;28;20513;-65
2023/08/11 01:57:43;;;;;;;;;;;;;;;;;;5041524;28;19959;-65
2023/08/11 02:00:13;;;;;;;;;;;;;;;;;;5045221;28;19990;-65
2023/08/11 02:02:39;;;;;;;;;;;;;;;;;;5045033;28;19965;-65
2023/08/11 02:05:06;;;;;;;;;;;;;;;;;;5052000;28;19924;-64
2023/08/11 02:07:31;;;;;;;;;;;;;;;;;;5050846;28;20007;-65
2023/08/11 02:09:57;;;;;;;;;;;;;;;;;;5050137;28;20372;-65
2023/08/11 02:12:23;;;;;;;;;;;;;;;;;;5049133;28;19924;-64
2023/08/11 02:14:49;;;;;;;;;;;;;;;;;;5033660;28;19921;-64
2023/08/11 02:17:15;;;;;;;;;;;;;;;;;;5048558;28;19925;-64
2023/08/11 02:19:41;;;;;;;;;;;;;;;;;;5041352;28;19936;-65
2023/08/11 02:22:07;;;;;;;;;;;;;;;;;;5051954;28;20543;-64
2023/08/11 02:24:34;;;;;;;;;;;;;;;;;;5046632;28;19935;-64
2023/08/11 02:27:01;;;;;;;;;;;;;;;;;;5056456;28;19932;-65
2023/08/11 02:29:27;;;;;;;;;;;;;;;;;;5056390;28;19921;-65
2023/08/11 02:31:53;;;;;;;;;;;;;;;;;;5055530;28;19957;-65
2023/08/11 02:34:19;;;;;;;;;;;;;;;;;;5056819;28;20013;-64
2023/08/11 02:36:45;;;;;;;;;;;;;;;;;;5054481;28;19925;-64
2023/08/11 02:39:10;;;;;;;;;;;;;;;;;;5058282;28;19921;-65
2023/08/11 02:41:36;;;;;;;;;;;;;;;;;;5040025;28;19929;-65
2023/08/11 02:44:02;;;;;;;;;;;;;;;;;;5057505;28;19924;-65
2023/08/11 02:46:28;;;;;;;;;;;;;;;;;;5054265;28;19921;-65
2023/08/11 02:48:54;;;;;;;;;;;;;;;;;;5055591;28;19936;-64
2023/08/11 02:51:20;;;;;;;;;;;;;;;;;;5056335;28;19925;-65
2023/08/11 02:53:46;;;;;;;;;;;;;;;;;;5055669;28;19932;-64
2023/08/11 02:56:15;;;;;;;;;;;;;;;;;;5055660;28;19947;-65
2023/08/11 02:58:41;;;;;;;;;;;;;;;;;;5055874;28;20363;-64
2023/08/11 03:01:07;;;;;;;;;;;;;;;;;;5054371;28;19978;-65
2023/08/11 03:03:33;;;;;;;;;;;;;;;;;;5036424;28;19932;-65
2023/08/11 03:05:59;;;;;;;;;;;;;;;;;;5055459;28;20002;-64
2023/08/11 03:08:25;;;;;;;;;;;;;;;;;;5055674;28;20370;-64
2023/08/11 03:10:51;;;;;;;;;;;;;;;;;;5057235;28;19929;-65
2023/08/11 03:13:17;;;;;;;;;;;;;;;;;;5051026;28;19996;-64
2023/08/11 03:15:43;;;;;;;;;;;;;;;;;;5037387;28;19979;-64
2023/08/11 03:18:09;;;;;;;;;;;;;;;;;;5056480;28;19928;-64
2023/08/11 03:20:36;;;;;;;;;;;;;;;;;;5036495;28;19955;-64
2023/08/11 03:23:02;;;;;;;;;;;;;;;;;;5051330;28;19931;-64
2023/08/11 03:25:28;;;;;;;;;;;;;;;;;;5052502;28;20011;-65
2023/08/11 03:27:56;;;;;;;;;;;;;;;;;;5056845;28;20024;-65
2023/08/11 03:30:22;;;;;;;;;;;;;;;;;;5057126;28;19921;-64
2023/08/11 03:32:48;;;;;;;;;;;;;;;;;;5053664;28;19928;-64
2023/08/11 03:35:14;;;;;;;;;;;;;;;;;;5034460;28;19925;-65
2023/08/11 03:37:40;;;;;;;;;;;;;;;;;;5050780;28;20398;-65
2023/08/11 03:40:12;;;;;;;;;;;;;;;;;;5044760;28;20047;-65
2023/08/11 03:42:38;;;;;;;;;;;;;;;;;;5048953;28;19925;-65
2023/08/11 03:45:04;;;;;;;;;;;;;;;;;;5051289;28;19925;-64
2023/08/11 03:47:30;;;;;;;;;;;;;;;;;;5049834;28;19921;-65
2023/08/11 03:49:56;;;;;;;;;;;;;;;;;;5053822;28;19928;-64
2023/08/11 03:52:22;;;;;;;;;;;;;;;;;;5052528;28;19925;-64
2023/08/11 03:54:48;;;;;;;;;;;;;;;;;;5048512;28;19925;-64
2023/08/11 03:57:14;;;;;;;;;;;;;;;;;;5052542;28;20070;-65
2023/08/11 03:59:40;;;;;;;;;;;;;;;;;;5051705;28;19928;-65
2023/08/11 04:02:06;;;;;;;;;;;;;;;;;;5051727;28;19940;-65
2023/08/11 04:04:32;;;;;;;;;;;;;;;;;;5034341;28;20397;-64
2023/08/11 04:06:58;;;;;;;;;;;;;;;;;;5053284;28;19920;-65
2023/08/11 04:09:24;;;;;;;;;;;;;;;;;;5053290;28;20325;-65
2023/08/11 04:11:50;;;;;;;;;;;;;;;;;;5048889;28;19975;-65
2023/08/11 04:14:16;;;;;;;;;;;;;;;;;;5033093;28;19970;-65
2023/08/11 04:16:43;;;;;;;;;;;;;;;;;;5034609;28;19933;-66
2023/08/11 04:19:09;;;;;;;;;;;;;;;;;;5052947;28;20305;-65
2023/08/11 04:21:35;;;;;;;;;;;;;;;;;;5042556;28;19921;-65
2023/08/11 04:24:02;;;;;;;;;;;;;;;;;;5035594;28;20003;-64
2023/08/11 04:26:28;;;;;;;;;;;;;;;;;;5035981;28;19928;-65
2023/08/11 04:28:54;;;;;;;;;;;;;;;;;;5029074;28;19921;-65
2023/08/11 04:31:21;;;;;;;;;;;;;;;;;;5039371;28;19967;-65
2023/08/11 04:33:46;;;;;;;;;;;;;;;;;;5048777;28;19924;-65
2023/08/11 04:36:13;;;;;;;;;;;;;;;;;;5053350;28;20321;-65
2023/08/11 04:38:39;;;;;;;;;;;;;;;;;;5051836;28;19924;-65
2023/08/11 04:41:05;;;;;;;;;;;;;;;;;;5053180;28;19921;-64
2023/08/11 04:43:31;;;;;;;;;;;;;;;;;;5050844;28;19966;-64
2023/08/11 04:45:57;;;;;;;;;;;;;;;;;;5036817;28;19928;-64
2023/08/11 04:48:23;;;;;;;;;;;;;;;;;;5037454;28;19928;-64
2023/08/11 04:50:49;;;;;;;;;;;;;;;;;;5052960;28;19970;-64
2023/08/11 04:53:15;;;;;;;;;;;;;;;;;;5052514;28;19925;-64
2023/08/11 04:55:40;;;;;;;;;;;;;;;;;;5052671;28;19929;-64
2023/08/11 04:58:06;;;;;;;;;;;;;;;;;;5052842;28;19971;-64
2023/08/11 05:00:33;;;;;;;;;;;;;;;;;;5051275;28;19924;-65
2023/08/11 05:02:59;;;;;;;;;;;;;;;;;;5047034;28;19932;-64
2023/08/11 05:05:26;;;;;;;;;;;;;;;;;;5032830;28;19921;-65
2023/08/11 05:07:52;;;;;;;;;;;;;;;;;;5046868;23;19932;-67
2023/08/11 05:10:18;;;;;;;;;;;;;;;;;;5044044;28;19925;-67
2023/08/11 05:12:44;;;;;;;;;;;;;;;;;;5052404;28;19971;-67
2023/08/11 05:15:09;;;;;;;;;;;;;;;;;;5052862;28;19928;-67
2023/08/11 05:17:35;;;;;;;;;;;;;;;;;;5052581;28;19925;-67
2023/08/11 05:20:02;;;;;;;;;;;;;;;;;;5047489;28;20275;-67
2023/08/11 05:22:27;;;;;;;;;;;;;;;;;;5044093;28;19921;-67
2023/08/11 05:24:53;;;;;;;;;;;;;;;;;;5040371;28;19920;-67
2023/08/11 05:27:19;;;;;;;;;;;;;;;;;;5050899;28;19956;-67
2023/08/11 05:29:47;;;;;;;;;;;;;;;;;;5050478;28;20370;-66
2023/08/11 05:32:13;;;;;;;;;;;;;;;;;;5047168;28;19924;-67
2023/08/11 05:34:38;;;;;;;;;;;;;;;;;;5036887;28;20019;-67
2023/08/11 05:37:05;;;;;;;;;;;;;;;;;;5045975;28;19929;-67
2023/08/11 05:39:31;;;;;;;;;;;;;;;;;;5032201;28;19921;-67
2023/08/11 05:41:57;;;;;;;;;;;;;;;;;;5049172;28;19970;-67
2023/08/11 05:44:23;;;;;;;;;;;;;;;;;;5034275;28;19925;-67
2023/08/11 05:46:49;;;;;;;;;;;;;;;;;;5051500;28;19928;-67
2023/08/11 05:49:15;;;;;;;;;;;;;;;;;;5050657;28;20282;-67
2023/08/11 05:51:41;;;;;;;;;;;;;;;;;;5050444;28;19974;-67
2023/08/11 05:54:07;;;;;;;;;;;;;;;;;;5042583;28;20019;-67
2023/08/11 05:56:33;;;;;;;;;;;;;;;;;;5031225;28;19925;-67
2023/08/11 05:58:59;;;;;;;;;;;;;;;;;;5041212;28;19955;-67
2023/08/11 06:01:25;;;;;;;;;;;;;;;;;;5018147;28;19964;-67
2023/08/11 06:03:51;;;;;;;;;;;;;;;;;;5051351;28;19978;-67
2023/08/11 06:06:17;;;;;;;;;;;;;;;;;;5051332;28;20416;-67
2023/08/11 06:08:42;;;;;;;;;;;;;;;;;;5048955;28;19939;-67
2023/08/11 06:11:08;;;;;;;;;;;;;;;;;;5036474;28;19948;-67
2023/08/11 06:13:34;;;;;;;;;;;;;;;;;;5051527;28;19935;-67
2023/08/11 06:16:00;;;;;;;;;;;;;;;;;;5049275;28;19925;-67
2023/08/11 06:18:26;;;;;;;;;;;;;;;;;;5051507;28;20393;-67
2023/08/11 06:20:53;;;;;;;;;;;;;;;;;;5045617;28;19934;-67
2023/08/11 06:23:18;;;;;;;;;;;;;;;;;;5045034;28;19925;-67
2023/08/11 06:25:44;;;;;;;;;;;;;;;;;;5044236;28;20333;-68
2023/08/11 06:28:10;;;;;;;;;;;;;;;;;;5038278;28;19928;-68
2023/08/11 06:30:36;;;;;;;;;;;;;;;;;;5044872;28;19982;-67
2023/08/11 06:33:02;;;;;;;;;;;;;;;;;;5043027;28;19999;-68
2023/08/11 06:35:28;;;;;;;;;;;;;;;;;;5036521;28;20305;-67
2023/08/11 06:37:54;;;;;;;;;;;;;;;;;;5050861;28;19929;-67
2023/08/11 06:40:20;;;;;;;;;;;;;;;;;;5047903;28;19921;-67
2023/08/11 06:42:46;;;;;;;;;;;;;;;;;;5032063;28;19963;-67
2023/08/11 06:45:12;;;;;;;;;;;;;;;;;;5021608;28;19924;-67
2023/08/11 06:47:38;;;;;;;;;;;;;;;;;;5042241;28;19935;-67
2023/08/11 06:50:04;;;;;;;;;;;;;;;;;;5036978;28;19946;-67
2023/08/11 06:52:30;;;;;;;;;;;;;;;;;;5038124;28;19921;-68
2023/08/11 06:54:55;;;;;;;;;;;;;;;;;;5035149;28;20521;-68
2023/08/11 06:57:21;;;;;;;;;;;;;;;;;;5040726;28;20012;-67
2023/08/11 06:59:47;;;;;;;;;;;;;;;;;;5032878;28;19928;-67
2023/08/11 07:02:13;;;;;;;;;;;;;;;;;;5036895;28;19929;-67
2023/08/11 07:04:39;;;;;;;;;;;;;;;;;;5037846;28;21162;-67
2023/08/11 07:07:05;;;;;;;;;;;;;;;;;;5036485;28;19964;-73
2023/08/11 07:09:31;;;;;;;;;;;;;;;;;;5040002;28;19959;-68
2023/08/11 07:11:57;;;;;;;;;;;;;;;;;;5043396;28;19924;-67
2023/08/11 07:14:23;;;;;;;;;;;;;;;;;;5040010;28;19932;-67
2023/08/11 07:16:49;;;;;;;;;;;;;;;;;;5040987;28;19925;-68
2023/08/11 07:19:15;;;;;;;;;;;;;;;;;;5044588;28;20361;-68
2023/08/11 07:21:41;;;;;;;;;;;;;;;;;;5042277;28;19975;-68
2023/08/11 07:24:07;;;;;;;;;;;;;;;;;;5041059;28;19956;-67
2023/08/11 07:26:33;;;;;;;;;;;;;;;;;;5049352;28;19931;-68
2023/08/11 07:28:58;;;;;;;;;;;;;;;;;;5048567;28;19920;-67
2023/08/11 07:31:24;;;;;;;;;;;;;;;;;;5048695;28;19960;-67
2023/08/11 07:33:50;;;;;;;;;;;;;;;;;;5049613;28;19959;-68
2023/08/11 07:36:16;;;;;;;;;;;;;;;;;;5046000;28;19925;-68
2023/08/11 07:38:42;;;;;;;;;;;;;;;;;;5052689;28;20380;-67
2023/08/11 07:41:08;;;;;;;;;;;;;;;;;;5050582;28;20443;-67
2023/08/11 07:43:34;;;;;;;;;;;;;;;;;;5048079;28;19929;-67
2023/08/11 07:46:00;;;;;;;;;;;;;;;;;;5053978;28;20269;-68
2023/08/11 07:48:26;;;;;;;;;;;;;;;;;;5044625;28;19928;-67
2023/08/11 07:50:52;;;;;;;;;;;;;;;;;;5043765;28;20321;-67
2023/08/11 07:53:18;;;;;;;;;;;;;;;;;;5038345;28;19925;-68
2023/08/11 07:55:43;;;;;;;;;;;;;;;;;;5038682;28;19935;-68
2023/08/11 07:58:09;;;;;;;;;;;;;;;;;;5046677;28;19929;-68
2023/08/11 08:00:35;;;;;;;;;;;;;;;;;;5051619;28;19921;-68
2023/08/11 08:03:01;;;;;;;;;;;;;;;;;;5047159;28;20424;-67
2023/08/11 08:05:27;;;;;;;;;;;;;;;;;;5051220;28;19921;-67
2023/08/11 08:07:53;;;;;;;;;;;;;;;;;;5050260;28;19933;-67
2023/08/11 08:10:20;;;;;;;;;;;;;;;;;;5028432;28;20006;-67
2023/08/11 08:12:46;;;;;;;;;;;;;;;;;;5050493;28;19927;-67
2023/08/11 08:15:11;;;;;;;;;;;;;;;;;;5050716;28;19924;-67
2023/08/11 08:17:37;;;;;;;;;;;;;;;;;;5044810;28;20282;-67
2023/08/11 08:20:04;;;;;;;;;;;;;;;;;;5049312;28;19974;-67
2023/08/11 08:22:30;;;;;;;;;;;;;;;;;;5035400;28;20365;-67
2023/08/11 08:24:56;;;;;;;;;;;;;;;;;;5042779;28;20421;-67
2023/08/11 08:27:25;;;;;;;;;;;;;;;;;;5047831;28;19983;-67
2023/08/11 08:29:51;;;;;;;;;;;;;;;;;;5046558;28;19920;-67
2023/08/11 08:32:17;;;;;;;;;;;;;;;;;;5050435;28;19929;-68
2023/08/11 08:34:43;;;;;;;;;;;;;;;;;;5051709;28;19932;-67
2023/08/11 08:37:09;;;;;;;;;;;;;;;;;;5038913;28;19925;-67
2023/08/11 08:39:35;;;;;;;;;;;;;;;;;;5052356;28;20354;-67
2023/08/11 08:42:01;;;;;;;;;;;;;;;;;;5047378;28;19928;-66
2023/08/11 08:44:27;;;;;;;;;;;;;;;;;;5050088;28;19932;-66
2023/08/11 08:46:53;;;;;;;;;;;;;;;;;;5052860;28;19959;-66
2023/08/11 08:49:19;;;;;;;;;;;;;;;;;;5048749;28;20004;-66
2023/08/11 08:51:45;;;;;;;;;;;;;;;;;;5044038;28;20015;-66
2023/08/11 08:54:12;;;;;;;;;;;;;;;;;;5052059;28;20366;-66
2023/08/11 08:56:38;;;;;;;;;;;;;;;;;;5051848;28;19932;-67
2023/08/11 08:59:05;;;;;;;;;;;;;;;;;;5052091;28;20297;-66
2023/08/11 09:01:30;;;;;;;;;;;;;;;;;;5042621;28;19921;-66
2023/08/11 09:03:56;;;;;;;;;;;;;;;;;;5041008;28;20300;-67
2023/08/11 09:06:22;;;;;;;;;;;;;;;;;;5037106;28;19974;-66
2023/08/11 09:08:48;;;;;;;;;;;;;;;;;;5052483;28;19968;-66
2023/08/11 09:11:14;;;;;;;;;;;;;;;;;;5052124;28;19927;-66
2023/08/11 09:13:40;;;;;;;;;;;;;;;;;;5052480;28;19921;-66
2023/08/11 09:16:06;;;;;;;;;;;;;;;;;;5052614;28;19975;-66
2023/08/11 09:18:32;;;;;;;;;;;;;;;;;;5024625;28;20386;-66
2023/08/11 09:20:58;;;;;;;;;;;;;;;;;;5045550;28;19920;-66
2023/08/11 09:23:24;;;;;;;;;;;;;;;;;;5053493;28;19931;-66
2023/08/11 09:25:50;;;;;;;;;;;;;;;;;;5020978;28;19921;-66
2023/08/11 09:28:16;;;;;;;;;;;;;;;;;;5049074;28;19966;-66
2023/08/11 09:30:42;;;;;;;;;;;;;;;;;;5048926;28;19970;-66
2023/08/11 09:33:08;;;;;;;;;;;;;;;;;;5050368;28;20310;-66
2023/08/11 09:35:34;;;;;;;;;;;;;;;;;;5042214;28;19921;-66
2023/08/11 09:38:00;;;;;;;;;;;;;;;;;;5026744;28;20040;-66
2023/08/11 09:40:26;;;;;;;;;;;;;;;;;;5050249;28;19932;-66
2023/08/11 09:42:52;;;;;;;;;;;;;;;;;;5031116;28;20012;-66
2023/08/11 09:45:18;;;;;;;;;;;;;;;;;;5047517;28;20413;-67
2023/08/11 09:47:44;;;;;;;;;;;;;;;;;;5043361;28;19932;-66
2023/08/11 09:50:09;;;;;;;;;;;;;;;;;;5050405;28;20617;-66
2023/08/11 09:52:35;;;;;;;;;;;;;;;;;;5046957;28;20033;-66
2023/08/11 09:55:03;;;;;;;;;;;;;;;;;;5047824;28;20277;-66
2023/08/11 09:57:29;;;;;;;;;;;;;;;;;;5030950;28;20060;-66
2023/08/11 09:59:55;;;;;;;;;;;;;;;;;;5023045;28;20031;-67
2023/08/11 10:02:24;;;;;;;;;;;;;;;;;;5042976;28;19931;-67
2023/08/11 10:04:56;;;;;;;;;;;;;;;;;;5048504;28;19983;-67
2023/08/11 10:07:22;;;;;;;;;;;;;;;;;;5047482;28;19925;-66
2023/08/11 10:09:48;;;;;;;;;;;;;;;;;;5047481;28;19921;-66
2023/08/11 10:12:14;;;;;;;;;;;;;;;;;;5049689;28;19940;-66
2023/08/11 10:14:40;;;;;;;;;;;;;;;;;;5044514;28;20340;-66
2023/08/11 10:17:06;;;;;;;;;;;;;;;;;;5035297;28;19924;-66
2023/08/11 10:19:31;;;;;;;;;;;;;;;;;;5028743;28;20015;-66
2023/08/11 10:21:57;;;;;;;;;;;;;;;;;;5047315;28;19969;-66
2023/08/11 10:24:23;;;;;;;;;;;;;;;;;;5044858;28;19931;-66
2023/08/11 10:26:50;;;;;;;;;;;;;;;;;;5042388;28;19921;-66
2023/08/11 10:29:16;;;;;;;;;;;;;;;;;;5042422;28;19928;-66
2023/08/11 10:31:42;;;;;;;;;;;;;;;;;;5039680;28;19935;-66
2023/08/11 10:34:08;;;;;;;;;;;;;;;;;;5041114;28;20251;-66
2023/08/11 10:36:35;;;;;;;;;;;;;;;;;;5042277;28;21279;-66
2023/08/11 10:39:01;;;;;;;;;;;;;;;;;;5032431;28;19950;-66
2023/08/11 10:41:27;;;;;;;;;;;;;;;;;;5048068;28;19921;-67
2023/08/11 10:43:53;;;;;;;;;;;;;;;;;;5023365;28;20039;-66
2023/08/11 10:46:19;;;;;;;;;;;;;;;;;;5053627;28;19932;-66
2023/08/11 10:48:45;;;;;;;;;;;;;;;;;;5054746;28;19931;-66
2023/08/11 10:51:11;;;;;;;;;;;;;;;;;;5049196;28;19992;-66
2023/08/11 10:53:37;;;;;;;;;;;;;;;;;;5049237;28;19928;-66
2023/08/11 10:56:03;;;;;;;;;;;;;;;;;;5052763;28;19933;-66
2023/08/11 10:58:28;;;;;;;;;;;;;;;;;;5053193;28;19944;-66
2023/08/11 11:00:54;;;;;;;;;;;;;;;;;;5045463;28;19928;-67
2023/08/11 11:03:21;;;;;;;;;;;;;;;;;;5044815;28;20527;-66
2023/08/11 11:05:47;;;;;;;;;;;;;;;;;;5029396;28;19986;-67
2023/08/11 11:08:13;;;;;;;;;;;;;;;;;;5035485;28;19932;-66
2023/08/11 11:10:39;;;;;;;;;;;;;;;;;;5036073;28;19920;-66
2023/08/11 11:13:05;;;;;;;;;;;;;;;;;;5036551;28;19932;-67
2023/08/11 11:15:30;;;;;;;;;;;;;;;;;;5016865;28;19963;-66
2023/08/11 11:17:56;;;;;;;;;;;;;;;;;;5035453;28;20363;-66
2023/08/11 11:20:22;;;;;;;;;;;;;;;;;;5051876;28;19925;-66
2023/08/11 11:22:49;;;;;;;;;;;;;;;;;;5053298;28;19925;-66
2023/08/11 11:25:16;;;;;;;;;;;;;;;;;;5046279;28;19928;-66
2023/08/11 11:27:42;;;;;;;;;;;;;;;;;;5042534;28;19936;-66
2023/08/11 11:30:09;;;;;;;;;;;;;;;;;;5045011;28;19921;-66
2023/08/11 11:32:35;;;;;;;;;;;;;;;;;;5046729;28;19986;-67
2023/08/11 11:35:01;;;;;;;;;;;;;;;;;;5040811;28;20343;-66
2023/08/11 11:37:26;;;;;;;;;;;;;;;;;;5050094;28;19925;-66
2023/08/11 11:39:52;;;;;;;;;;;;;;;;;;5044156;28;19924;-66
2023/08/11 11:42:18;;;;;;;;;;;;;;;;;;5050437;28;20069;-66
2023/08/11 11:44:44;;;;;;;;;;;;;;;;;;5046220;28;19956;-66
2023/08/11 11:47:10;;;;;;;;;;;;;;;;;;5047767;28;19978;-66
2023/08/11 11:49:36;;;;;;;;;;;;;;;;;;5047319;28;19921;-66
2023/08/11 11:52:03;;;;;;;;;;;;;;;;;;5042742;28;20047;-66
2023/08/11 11:54:29;;;;;;;;;;;;;;;;;;5050411;28;20066;-66
2023/08/11 11:56:55;;;;;;;;;;;;;;;;;;5041080;28;19939;-66
2023/08/11 11:59:21;;;;;;;;;;;;;;;;;;5049792;28;20015;-66
2023/08/11 12:01:47;;;;;;;;;;;;;;;;;;5025746;28;20340;-66
2023/08/11 12:04:13;;;;;;;;;;;;;;;;;;5049012;28;19924;-66
2023/08/11 12:06:39;;;;;;;;;;;;;;;;;;5053760;28;19924;-66
2023/08/11 12:09:05;;;;;;;;;;;;;;;;;;5039398;28;19944;-66
2023/08/11 12:11:31;;;;;;;;;;;;;;;;;;5042502;28;19920;-66
2023/08/11 12:13:57;;;;;;;;;;;;;;;;;;5048804;28;19943;-66
2023/08/11 12:16:22;;;;;;;;;;;;;;;;;;5053526;28;20282;-67
2023/08/11 12:18:48;;;;;;;;;;;;;;;;;;5053576;28;19932;-66
2023/08/11 12:21:14;;;;;;;;;;;;;;;;;;5043171;28;20015;-66
2023/08/11 12:23:40;;;;;;;;;;;;;;;;;;5038157;28;20316;-66
2023/08/11 12:26:07;;;;;;;;;;;;;;;;;;5038042;28;19921;-67
2023/08/11 12:28:33;;;;;;;;;;;;;;;;;;5032832;28;19929;-66
2023/08/11 12:30:59;;;;;;;;;;;;;;;;;;5044556;28;19928;-66
2023/08/11 12:33:25;;;;;;;;;;;;;;;;;;5053577;28;19931;-66
2023/08/11 12:35:51;;;;;;;;;;;;;;;;;;5052312;28;19925;-67
2023/08/11 12:38:17;;;;;;;;;;;;;;;;;;5035746;28;20008;-66
2023/08/11 12:40:43;;;;;;;;;;;;;;;;;;5037494;28;19928;-66
2023/08/11 12:43:09;;;;;;;;;;;;;;;;;;5049537;28;19939;-66
2023/08/11 12:45:35;;;;;;;;;;;;;;;;;;5053331;28;19921;-66
2023/08/11 12:48:01;;;;;;;;;;;;;;;;;;5053269;28;20015;-66
2023/08/11 12:50:28;;;;;;;;;;;;;;;;;;5053300;28;19931;-66
2023/08/11 12:52:54;;;;;;;;;;;;;;;;;;5051640;28;20031;-66
2023/08/11 12:55:20;;;;;;;;;;;;;;;;;;5050551;28;20003;-66
2023/08/11 12:57:46;;;;;;;;;;;;;;;;;;5048847;28;19982;-66
2023/08/11 13:00:12;;;;;;;;;;;;;;;;;;5049706;28;19920;-66
2023/08/11 13:02:38;;;;;;;;;;;;;;;;;;5050357;28;19920;-66
2023/08/11 13:05:04;;;;;;;;;;;;;;;;;;5051075;28;19932;-66
2023/08/11 13:07:30;;;;;;;;;;;;;;;;;;5051442;28;19925;-66
2023/08/11 13:09:56;;;;;;;;;;;;;;;;;;5052666;28;19921;-66
2023/08/11 13:12:22;;;;;;;;;;;;;;;;;;5046517;28;19920;-66
2023/08/11 13:14:47;;;;;;;;;;;;;;;;;;5034839;28;19931;-66
2023/08/11 13:17:13;;;;;;;;;;;;;;;;;;5050722;28;19928;-66
2023/08/11 13:19:39;;;;;;;;;;;;;;;;;;5051552;28;20053;-66
2023/08/11 13:22:06;;;;;;;;;;;;;;;;;;5051205;28;19999;-66
2023/08/11 13:24:32;;;;;;;;;;;;;;;;;;5051233;28;19929;-66
2023/08/11 13:26:57;;;;;;;;;;;;;;;;;;5046233;28;20446;-66
2023/08/11 13:29:23;;;;;;;;;;;;;;;;;;5044858;28;19970;-66
2023/08/11 13:31:49;;;;;;;;;;;;;;;;;;5049759;28;19924;-66
2023/08/11 13:34:15;;;;;;;;;;;;;;;;;;5038136;28;20632;-66
2023/08/11 13:36:41;;;;;;;;;;;;;;;;;;5051039;28;19925;-66
2023/08/11 13:39:08;;;;;;;;;;;;;;;;;;5041826;28;19936;-66
2023/08/11 13:41:34;;;;;;;;;;;;;;;;;;5031839;28;19957;-66
2023/08/11 13:44:00;;;;;;;;;;;;;;;;;;5047903;28;19956;-66
2023/08/11 13:46:26;;;;;;;;;;;;;;;;;;5048110;28;19921;-66
2023/08/11 13:48:52;;;;;;;;;;;;;;;;;;5032433;28;19931;-66
2023/08/11 13:51:18;;;;;;;;;;;;;;;;;;5045239;28;19925;-66
2023/08/11 13:53:44;;;;;;;;;;;;;;;;;;5048714;28;19921;-67
2023/08/11 13:56:11;;;;;;;;;;;;;;;;;;5045325;28;19929;-70
2023/08/11 13:58:37;;;;;;;;;;;;;;;;;;5029861;28;19971;-67
2023/08/11 14:01:03;;;;;;;;;;;;;;;;;;5044188;28;19975;-67
2023/08/11 14:03:29;;;;;;;;;;;;;;;;;;5048430;28;20423;-67
2023/08/11 14:05:55;;;;;;;;;;;;;;;;;;5049902;28;19921;-67
2023/08/11 14:08:21;;;;;;;;;;;;;;;;;;5044328;28;19924;-67
2023/08/11 14:10:47;;;;;;;;;;;;;;;;;;5048756;28;19928;-67
2023/08/11 14:13:13;;;;;;;;;;;;;;;;;;5045574;28;19957;-67
2023/08/11 14:15:38;;;;;;;;;;;;;;;;;;5050524;28;20536;-68
2023/08/11 14:18:05;;;;;;;;;;;;;;;;;;5050362;28;20282;-67
2023/08/11 14:20:31;;;;;;;;;;;;;;;;;;5035991;28;19967;-68
2023/08/11 14:22:57;;;;;;;;;;;;;;;;;;5049167;28;20570;-66
2023/08/11 14:25:23;;;;;;;;;;;;;;;;;;5030955;28;19920;-67
2023/08/11 14:27:49;;;;;;;;;;;;;;;;;;5044172;28;20272;-67
2023/08/11 14:30:15;;;;;;;;;;;;;;;;;;5042803;28;19924;-67
2023/08/11 14:32:41;;;;;;;;;;;;;;;;;;5046875;28;19921;-66
2023/08/11 14:35:10;;;;;;;;;;;;;;;;;;5048860;28;19942;-66
2023/08/11 14:37:36;;;;;;;;;;;;;;;;;;5034586;28;19991;-66
2023/08/11 14:40:02;;;;;;;;;;;;;;;;;;5050292;28;20378;-67
2023/08/11 14:42:28;;;;;;;;;;;;;;;;;;5042918;28;20010;-66
2023/08/11 14:44:54;;;;;;;;;;;;;;;;;;5008405;28;19992;-67
2023/08/11 14:47:20;;;;;;;;;;;;;;;;;;5034285;28;19924;-66
2023/08/11 14:49:46;;;;;;;;;;;;;;;;;;5042290;28;20341;-66
2023/08/11 14:52:12;;;;;;;;;;;;;;;;;;5045093;28;19921;-66
2023/08/11 14:54:38;;;;;;;;;;;;;;;;;;5012148;28;20477;-66
2023/08/11 14:57:04;;;;;;;;;;;;;;;;;;5043985;28;19935;-67
2023/08/11 14:59:31;;;;;;;;;;;;;;;;;;5047234;28;19927;-66
2023/08/11 15:01:57;;;;;;;;;;;;;;;;;;5048171;28;19925;-66
2023/08/11 15:04:23;;;;;;;;;;;;;;;;;;5050738;28;19978;-66
2023/08/11 15:06:48;;;;;;;;;;;;;;;;;;5049097;28;20306;-66
2023/08/11 15:09:14;;;;;;;;;;;;;;;;;;5037730;28;20393;-67
2023/08/11 15:11:40;;;;;;;;;;;;;;;;;;5043795;28;19931;-66
2023/08/11 15:14:06;;;;;;;;;;;;;;;;;;5050532;28;19920;-66
2023/08/11 15:16:32;;;;;;;;;;;;;;;;;;5042149;28;19936;-66
2023/08/11 15:18:58;;;;;;;;;;;;;;;;;;5050908;28;19921;-66
2023/08/11 15:21:24;;;;;;;;;;;;;;;;;;5050889;28;19967;-66
2023/08/11 15:23:50;;;;;;;;;;;;;;;;;;5026402;28;19920;-66
2023/08/11 15:26:16;;;;;;;;;;;;;;;;;;5049259;28;20262;-66
2023/08/11 15:28:42;;;;;;;;;;;;;;;;;;5044936;28;19956;-66
2023/08/11 15:31:08;;;;;;;;;;;;;;;;;;5048650;28;19924;-66
2023/08/11 15:33:33;;;;;;;;;;;;;;;;;;5044216;28;19929;-66
2023/08/11 15:35:59;;;;;;;;;;;;;;;;;;5054008;28;19925;-66
2023/08/11 15:38:25;;;;;;;;;;;;;;;;;;5036590;28;19975;-66
2023/08/11 15:40:51;;;;;;;;;;;;;;;;;;5054494;28;19928;-66
2023/08/11 15:43:17;;;;;;;;;;;;;;;;;;5054419;28;20350;-66
2023/08/11 15:45:43;;;;;;;;;;;;;;;;;;5054072;28;20033;-66
2023/08/11 15:48:09;;;;;;;;;;;;;;;;;;5053942;28;20008;-66
2023/08/11 15:50:35;;;;;;;;;;;;;;;;;;5026109;28;19932;-66
2023/08/11 15:53:01;;;;;;;;;;;;;;;;;;5036017;28;19921;-66
2023/08/11 15:55:27;;;;;;;;;;;;;;;;;;5035544;28;19928;-66
2023/08/11 15:57:53;;;;;;;;;;;;;;;;;;5053906;28;19929;-66
2023/08/11 16:00:18;;;;;;;;;;;;;;;;;;5053106;28;19929;-66
2023/08/11 16:02:44;;;;;;;;;;;;;;;;;;5053846;28;19925;-66
2023/08/11 16:05:11;;;;;;;;;;;;;;;;;;5053417;28;20273;-66
2023/08/11 16:07:37;;;;;;;;;;;;;;;;;;5048701;28;20286;-66
2023/08/11 16:10:03;;;;;;;;;;;;;;;;;;5050523;28;19979;-67
2023/08/11 16:12:29;;;;;;;;;;;;;;;;;;5050713;28;19921;-67
2023/08/11 16:14:55;;;;;;;;;;;;;;;;;;5051595;28;19968;-67
2023/08/11 16:17:21;;;;;;;;;;;;;;;;;;5034794;28;19929;-66
2023/08/11 16:19:46;;;;;;;;;;;;;;;;;;5047458;28;19921;-66
2023/08/11 16:22:12;;;;;;;;;;;;;;;;;;5048021;28;19932;-66
2023/08/11 16:24:38;;;;;;;;;;;;;;;;;;5047523;28;19920;-66
2023/08/11 16:27:04;;;;;;;;;;;;;;;;;;5045621;28;19979;-71
2023/08/11 16:29:30;;;;;;;;;;;;;;;;;;5052017;28;19960;-67
2023/08/11 16:31:56;;;;;;;;;;;;;;;;;;5043936;28;19975;-67
2023/08/11 16:34:23;;;;;;;;;;;;;;;;;;5040742;28;20554;-67
2023/08/11 16:36:49;;;;;;;;;;;;;;;;;;5036938;28;19925;-66